Time;durP1;ratioP1;P1;durP2;ratioP2;P2;SDS_P1;SDS_P2;PMS_P1;PMS_P2;Temp;Humidity;BMP_temperature;BMP_pressure;BME280_temperature;BME280_humidity;BME280_pressure;Samples;Min_cycle;Max_cycle;Signal;HPM_P1;HPM_P2
2024/02/07 00:21:11;;;;;;;1.13;0.80;;;9.20;99.90;;;9.30;100.00;99111.56;5834151;24;20174;-82
2024/02/07 00:24:32;;;;;;;2.13;1.65;;;9.20;1.00;;;9.35;100.00;99103.56;5986506;24;20403;-81
2024/02/07 00:35:47;;;;;;;1.50;1.25;;;9.20;99.90;;;9.37;100.00;99100.63;6082516;23;20182;-82
2024/02/07 00:39:19;;;;;;;2.80;2.00;;;9.30;99.90;;;9.33;100.00;99077.88;6089843;23;20195;-81
2024/02/07 00:42:03;;;;;;;1.43;1.13;;;9.30;1.00;;;9.24;100.00;99084.72;6086939;23;20400;-80
2024/02/07 00:46:06;;;;;;;2.33;1.75;;;9.20;99.90;;;9.27;100.00;99046.44;6087313;23;20412;-80
2024/02/07 00:48:56;;;;;;;1.50;1.25;;;9.20;1.00;;;9.28;100.00;99099.38;6085043;23;20188;-80
2024/02/07 00:51:49;;;;;;;2.53;1.92;;;9.20;1.00;;;9.35;100.00;99108.16;6072772;23;20248;-80
2024/02/07 00:54:28;;;;;;;2.53;1.33;;;9.20;99.90;;;9.29;100.00;99074.03;6073129;23;20232;-82
2024/02/07 00:57:53;;;;;;;2.47;1.20;;;9.20;1.00;;;9.32;100.00;99103.22;5989504;23;20212;-82
2024/02/07 01:08:59;;;;;;;1.00;0.60;;;9.20;99.90;;;8.41;100.00;99176.56;5872386;23;20519;-64
2024/02/07 01:11:28;;;;;;;1.10;0.88;;;8.60;99.90;;;8.02;100.00;99184.13;6097332;23;20220;-65
2024/02/07 01:13:56;;;;;;;0.80;0.50;;;8.20;99.90;;;7.83;100.00;99186.03;6097044;23;20251;-64
2024/02/07 01:16:25;;;;;;;0.80;0.60;;;8.00;22.10;;;7.65;100.00;99195.97;6099128;23;20155;-66
2024/02/07 01:18:53;;;;;;;0.90;0.50;;;7.80;99.90;;;7.66;100.00;99205.69;6098707;23;20748;-66
2024/02/07 01:21:22;;;;;;;0.80;0.40;;;7.70;99.90;;;7.50;100.00;99196.34;6098602;23;20159;-64
2024/02/07 01:23:52;;;;;;;0.80;0.50;;;7.60;99.90;;;7.39;100.00;99197.06;6098565;23;20493;-68
2024/02/07 01:26:21;;;;;;;0.80;0.50;;;7.40;99.90;;;7.34;100.00;99208.50;6098872;23;20604;-61
2024/02/07 01:28:50;;;;;;;0.80;0.60;;;7.40;99.90;;;7.27;100.00;99210.41;6099170;23;20259;-61
2024/02/07 01:31:22;;;;;;;5.28;0.77;;;7.30;99.90;;;7.23;100.00;99217.28;6098406;23;20251;-63
2024/02/07 01:33:51;;;;;;;0.80;0.40;;;7.30;99.90;;;7.13;100.00;99222.34;6098725;23;20226;-64
2024/02/07 01:36:20;;;;;;;0.80;0.50;;;7.20;99.90;;;7.05;100.00;99222.63;6098757;23;20251;-64
2024/02/07 01:38:49;;;;;;;0.80;0.40;;;7.10;99.90;;;6.98;100.00;99220.00;6098381;23;20656;-65
2024/02/07 01:41:18;;;;;;;0.80;0.40;;;7.00;99.90;;;6.91;100.00;99246.13;6098452;23;20163;-64
2024/02/07 01:43:48;;;;;;;0.80;0.50;;;6.90;99.90;;;6.81;100.00;99239.59;6098276;23;20507;-63
2024/02/07 01:46:17;;;;;;;0.90;0.60;;;6.80;99.90;;;6.74;100.00;99228.03;6099911;23;20168;-64
2024/02/07 01:48:46;;;;;;;0.80;0.40;;;6.80;99.90;;;6.71;100.00;99239.22;6101007;23;20186;-65
2024/02/07 01:51:15;;;;;;;1.48;1.02;;;6.70;99.90;;;6.66;100.00;99242.56;6099557;23;20164;-67
2024/02/07 01:53:44;;;;;;;0.80;0.50;;;6.70;99.90;;;6.57;100.00;99248.44;6099723;23;20239;-65
2024/02/07 01:56:13;;;;;;;0.80;0.40;;;6.60;99.90;;;6.36;100.00;99250.41;6099642;23;20167;-65
2024/02/07 01:58:42;;;;;;;0.80;0.40;;;6.40;99.90;;;6.34;100.00;99233.66;6099652;23;20191;-65
2024/02/07 02:01:12;;;;;;;0.80;0.45;;;6.30;99.90;;;6.24;100.00;99238.69;6100009;23;20182;-66
2024/02/07 02:03:40;;;;;;;0.80;0.50;;;6.30;99.90;;;6.20;100.00;99242.00;6100090;23;20169;-65
2024/02/07 02:06:10;;;;;;;0.80;0.50;;;6.20;99.90;;;6.08;100.00;99240.00;6100779;23;20174;-64
2024/02/07 02:08:39;;;;;;;0.80;0.50;;;6.10;99.90;;;6.06;100.00;99243.91;6100417;23;20215;-58
2024/02/07 02:11:12;;;;;;;0.80;0.47;;;6.10;99.90;;;5.99;100.00;99252.03;6098237;23;20162;-64
2024/02/07 02:13:41;;;;;;;0.80;0.50;;;6.10;99.90;;;5.99;100.00;99235.09;6098498;23;20671;-63
2024/02/07 02:16:11;;;;;;;0.80;0.45;;;6.00;99.90;;;5.93;100.00;99249.34;6098558;23;20616;-65
2024/02/07 02:18:39;;;;;;;0.80;0.40;;;5.90;99.90;;;5.92;100.00;99253.06;6096191;23;20719;-60
2024/02/07 02:21:26;;;;;;;0.80;0.50;;;5.90;99.90;;;5.86;100.00;99248.50;6097454;23;20168;-64
2024/02/07 02:24:29;;;;;;;0.80;0.50;;;5.90;99.90;;;5.75;100.00;99244.63;6097980;23;20155;-65
2024/02/07 02:27:22;;;;;;;0.80;0.50;;;5.80;99.90;;;5.72;100.00;99238.84;6097595;23;20234;-64
2024/02/07 02:29:55;;;;;;;0.80;0.50;;;5.80;99.90;;;5.69;100.00;99243.63;6098300;23;20160;-64
2024/02/07 02:32:25;;;;;;;0.80;0.40;;;5.80;99.90;;;5.61;100.00;99251.06;6098327;23;20155;-64
2024/02/07 02:34:56;;;;;;;0.80;0.50;;;5.70;99.90;;;5.52;100.00;99261.19;6098241;23;20166;-65
2024/02/07 02:37:25;;;;;;;0.80;0.60;;;5.60;99.90;;;5.48;100.00;99249.22;6098396;23;20186;-62
2024/02/07 02:39:55;;;;;;;0.80;0.50;;;5.60;99.90;;;5.57;100.00;99256.00;6099195;23;20662;-65
2024/02/07 02:42:23;;;;;;;0.80;0.50;;;5.60;99.90;;;5.49;100.00;99255.41;6098828;23;20492;-64
2024/02/07 02:44:54;;;;;;;0.80;0.40;;;5.60;99.90;;;5.42;100.00;99250.06;6121426;23;20198;-65
2024/02/07 02:47:25;;;;;;;0.80;0.50;;;5.50;99.90;;;5.50;100.00;99251.72;6098252;23;20206;-64
2024/02/07 02:49:54;;;;;;;0.80;0.55;;;5.50;99.90;;;5.40;100.00;99252.13;6098248;23;20258;-65
2024/02/07 02:52:23;;;;;;;0.80;0.50;;;5.50;99.90;;;5.43;100.00;99251.72;6097961;23;20155;-64
2024/02/07 02:54:51;;;;;;;0.80;0.50;;;5.50;99.90;;;5.45;100.00;99251.50;6098144;23;20658;-66
2024/02/07 02:57:22;;;;;;;0.80;0.50;;;5.50;99.90;;;5.39;100.00;99258.53;6098491;23;20210;-62
2024/02/07 02:59:51;;;;;;;0.80;0.50;;;5.50;99.90;;;5.39;100.00;99257.69;6098457;23;20156;-64
2024/02/07 03:02:21;;;;;;;0.80;0.50;;;5.40;99.90;;;5.23;100.00;99262.47;6098118;23;20203;-63
2024/02/07 03:04:51;;;;;;;0.80;0.50;;;5.30;99.90;;;5.24;100.00;99274.84;6098230;23;20160;-63
2024/02/07 03:07:54;;;;;;;0.80;0.50;;;5.30;99.90;;;5.20;100.00;99272.78;6098468;23;20159;-64
2024/02/07 03:10:23;;;;;;;0.80;0.50;;;5.30;99.90;;;5.12;100.00;99273.00;6098460;23;20173;-65
2024/02/07 03:12:52;;;;;;;0.80;0.50;;;5.20;99.90;;;5.03;100.00;99276.91;6098269;23;20155;-64
2024/02/07 03:15:21;;;;;;;0.80;0.50;;;5.10;99.90;;;4.99;100.00;99283.69;6098403;23;20163;-64
2024/02/07 03:17:51;;;;;;;0.80;0.40;;;5.10;99.90;;;5.04;100.00;99271.31;6097758;23;20197;-64
2024/02/07 03:20:20;;;;;;;0.90;0.60;;;5.10;99.90;;;5.08;100.00;99287.84;6097832;23;20587;-64
2024/02/07 03:22:49;;;;;;;1.00;0.50;;;5.10;99.90;;;5.09;100.00;99292.97;6097796;23;20584;-64
2024/02/07 03:25:18;;;;;;;0.80;0.50;;;5.10;99.90;;;5.04;100.00;99290.09;6097642;23;20181;-64
2024/02/07 03:27:48;;;;;;;0.80;0.50;;;5.10;99.90;;;4.92;100.00;99293.59;6097625;23;20201;-65
2024/02/07 03:30:21;;;;;;;0.80;0.50;;;5.00;99.90;;;4.94;100.00;99295.03;6097806;23;20186;-65
2024/02/07 03:32:52;;;;;;;0.80;0.50;;;5.00;99.90;;;4.80;100.00;99294.19;6120506;23;20214;-64
2024/02/07 03:35:20;;;;;;;0.80;0.50;;;4.90;99.90;;;4.64;100.00;99286.56;6097930;23;20152;-62
2024/02/07 03:37:49;;;;;;;0.80;0.50;;;4.70;99.90;;;4.59;100.00;99297.06;6097165;23;20241;-65
2024/02/07 03:40:19;;;;;;;0.80;0.50;;;4.70;99.90;;;4.46;100.00;99291.63;6097808;23;20604;-64
2024/02/07 03:42:47;;;;;;;0.80;0.50;;;4.50;99.90;;;4.34;100.00;99295.94;6097921;23;20157;-66
2024/02/07 03:45:17;;;;;;;0.80;0.45;;;4.40;99.90;;;4.27;100.00;99287.88;6097738;23;20241;-63
2024/02/07 03:47:48;;;;;;;10.95;1.35;;;4.40;99.90;;;4.27;100.00;99265.63;6097512;23;20197;-66
2024/02/07 03:50:25;;;;;;;0.80;0.50;;;4.40;99.90;;;4.33;100.00;99278.22;6097822;23;20621;-64
2024/02/07 03:52:56;;;;;;;2.95;1.08;;;4.40;99.90;;;4.31;100.00;99266.88;6097828;23;20166;-63
2024/02/07 03:55:24;;;;;;;0.80;0.50;;;4.30;99.90;;;4.34;100.00;99277.19;6097374;23;20567;-64
2024/02/07 03:57:54;;;;;;;0.80;0.50;;;4.40;99.90;;;4.29;100.00;99269.78;6097529;23;20198;-67
2024/02/07 04:00:22;;;;;;;0.80;0.50;;;4.40;99.90;;;4.19;100.00;99280.03;6097562;23;20629;-64
2024/02/07 04:02:54;;;;;;;0.80;0.50;;;4.30;99.90;;;4.31;100.00;99288.28;6097372;23;20203;-66
2024/02/07 04:05:24;;;;;;;0.80;0.50;;;4.30;99.90;;;4.19;100.00;99289.91;6097594;23;20169;-63
2024/02/07 04:07:54;;;;;;;0.80;0.50;;;4.30;99.90;;;4.18;100.00;99288.25;6097219;23;20201;-64
2024/02/07 04:10:24;;;;;;;1.23;0.98;;;4.20;99.90;;;4.03;100.00;99300.94;6095532;23;20264;-61
2024/02/07 05:16:31;;;;;;;1.25;1.08;;;3.70;99.90;;;3.61;100.00;99268.00;6071949;23;20622;-65
2024/02/07 05:19:01;;;;;;;1.95;1.25;;;3.70;99.90;;;3.58;100.00;99263.06;6071802;23;20193;-63
2024/02/07 05:21:31;;;;;;;0.80;0.50;;;3.70;99.90;;;3.55;100.00;99265.28;6071362;23;20497;-65
2024/02/07 05:24:00;;;;;;;0.80;0.50;;;3.70;99.90;;;3.52;100.00;99265.69;6072225;23;20607;-64
2024/02/07 05:26:33;;;;;;;0.80;0.40;;;3.60;99.90;;;3.60;100.00;99271.69;6071783;23;20486;-63
2024/02/07 05:29:03;;;;;;;1.00;0.60;;;3.60;99.90;;;3.60;100.00;99246.81;6071311;23;20194;-62
2024/02/07 05:31:32;;;;;;;1.98;1.88;;;3.70;99.90;;;3.66;100.00;99267.41;6071511;23;20162;-66
2024/02/07 05:34:00;;;;;;;1.90;1.00;;;3.70;99.90;;;3.65;100.00;99268.44;6072073;23;20536;-65
2024/02/07 05:36:30;;;;;;;0.80;0.50;;;3.70;99.90;;;3.62;100.00;99287.56;6071846;23;20152;-65
2024/02/07 05:38:58;;;;;;;1.13;1.02;;;3.70;99.90;;;3.65;100.00;99279.97;6071735;23;20282;-63
2024/02/07 05:41:29;;;;;;;0.80;0.60;;;3.70;99.90;;;3.72;100.00;99288.88;6072058;23;20165;-65
2024/02/07 05:43:57;;;;;;;0.80;0.43;;;3.70;99.90;;;3.69;100.00;99288.41;6072210;23;20589;-64
2024/02/07 05:46:26;;;;;;;1.00;0.77;;;3.80;99.90;;;3.74;100.00;99286.81;6071780;23;20197;-65
2024/02/07 05:48:55;;;;;;;1.55;1.45;;;3.80;99.90;;;3.66;100.00;99289.66;6071811;23;20565;-65
2024/02/07 05:51:26;;;;;;;0.80;0.50;;;3.70;99.90;;;3.65;100.00;99281.81;6071795;23;20158;-65
2024/02/07 05:53:55;;;;;;;0.80;0.50;;;3.70;99.90;;;3.68;100.00;99297.50;6072365;23;20161;-66
2024/02/07 05:56:24;;;;;;;0.80;0.60;;;3.70;99.90;;;3.68;100.00;99308.19;6071534;23;20166;-65
2024/02/07 05:58:54;;;;;;;0.80;0.60;;;3.70;99.90;;;3.71;100.00;99305.94;6071810;23;20192;-63
2024/02/07 06:01:23;;;;;;;1.55;0.80;;;3.70;99.90;;;3.72;100.00;99307.59;6070539;23;20166;-64
2024/02/07 06:03:56;;;;;;;0.80;0.50;;;3.80;99.90;;;3.68;100.00;99308.19;6070449;23;20664;-65
2024/02/07 06:06:29;;;;;;;0.80;0.50;;;3.70;99.90;;;3.68;100.00;99303.63;6070478;23;20158;-65
2024/02/07 06:08:59;;;;;;;0.90;0.70;;;3.70;99.90;;;3.71;100.00;99307.78;6075902;23;20195;-65
2024/02/07 06:11:31;;;;;;;0.80;0.50;;;3.70;99.90;;;3.74;100.00;99308.22;6099337;23;20163;-63
2024/02/07 06:14:04;;;;;;;1.00;0.60;;;3.70;99.90;;;3.82;100.00;99310.75;6100192;23;20148;-66
2024/02/07 06:16:34;;;;;;;1.27;1.10;;;3.80;99.90;;;3.86;100.00;99300.47;6101601;23;20540;-66
2024/02/07 06:19:04;;;;;;;0.80;0.50;;;3.90;99.90;;;3.82;100.00;99309.91;6100974;23;20184;-66
2024/02/07 06:21:33;;;;;;;0.80;0.50;;;3.80;99.90;;;3.78;100.00;99320.16;6100849;23;20160;-66
2024/02/07 06:24:01;;;;;;;3.55;1.55;;;3.80;99.90;;;3.87;100.00;99312.81;6100618;23;20158;-65
2024/02/07 06:26:30;;;;;;;0.80;0.50;;;3.90;99.90;;;3.87;100.00;99312.81;6100662;23;20216;-68
2024/02/07 06:28:59;;;;;;;0.80;0.50;;;3.90;99.90;;;3.86;100.00;99312.00;6101103;23;20215;-67
2024/02/07 06:31:30;;;;;;;0.77;0.43;;;3.90;99.90;;;3.87;100.00;99307.47;6100042;23;20157;-64
2024/02/07 06:33:58;;;;;;;0.80;0.50;;;3.90;99.90;;;3.90;100.00;99318.59;6099382;23;20156;-65
2024/02/07 06:36:27;;;;;;;0.80;0.50;;;3.90;99.90;;;3.85;100.00;99309.50;6100291;23;20501;-67
2024/02/07 06:38:56;;;;;;;0.80;0.50;;;3.90;99.90;;;3.82;100.00;99316.09;6099453;23;20197;-66
2024/02/07 06:41:25;;;;;;;0.80;0.50;;;3.90;99.90;;;3.85;100.00;99315.69;6099097;23;20244;-66
2024/02/07 06:43:54;;;;;;;2.45;0.90;;;3.90;99.90;;;3.83;100.00;99312.38;6098533;23;20161;-67
2024/02/07 06:46:23;;;;;;;2.30;1.15;;;3.90;99.90;;;3.88;100.00;99309.94;6099598;23;20220;-63
2024/02/07 06:48:53;;;;;;;0.80;0.60;;;3.90;99.90;;;3.85;100.00;99320.22;6098560;23;20528;-65
2024/02/07 06:51:22;;;;;;;0.80;0.50;;;3.90;99.90;;;3.88;100.00;99322.47;6097940;23;20161;-65
2024/02/07 06:53:51;;;;;;;1.75;0.57;;;3.90;99.90;;;3.91;100.00;99325.63;6098094;23;20607;-64
2024/02/07 06:56:21;;;;;;;0.80;0.55;;;3.90;99.90;;;3.91;100.00;99320.25;6098052;23;20149;-64
2024/02/07 06:58:49;;;;;;;1.05;0.55;;;3.90;99.90;;;3.94;100.00;99332.41;6098296;23;20267;-66
2024/02/07 07:01:18;;;;;;;0.80;0.50;;;3.90;99.90;;;3.94;100.00;99330.56;6097595;23;20180;-63
2024/02/07 07:04:07;;;;;;;5.70;1.58;;;3.90;99.90;;;3.97;100.00;99333.88;6098128;23;20169;-62
2024/02/07 07:06:36;;;;;;;0.80;0.60;;;3.90;99.90;;;3.98;100.00;99328.31;6097996;23;20156;-65
2024/02/07 07:09:06;;;;;;;0.80;0.50;;;4.00;99.90;;;4.03;100.00;99330.38;6097714;23;20192;-63
2024/02/07 07:11:34;;;;;;;0.95;0.77;;;4.00;99.90;;;4.06;100.00;99333.50;6097419;23;20230;-66
2024/02/07 07:14:06;;;;;;;2.00;1.20;;;4.00;99.90;;;4.09;100.00;99338.47;6098013;23;20163;-65
2024/02/07 07:16:35;;;;;;;1.52;0.60;;;4.00;99.90;;;4.11;100.00;99340.94;6097602;23;20157;-65
2024/02/07 07:22:01;;;;;;;3.65;1.05;;;4.10;99.90;;;4.15;100.00;99336.84;6131129;23;20323;-64
2024/02/07 07:24:30;;;;;;;0.80;0.50;;;4.20;99.90;;;4.23;100.00;99340.19;6156415;23;20543;-64
2024/02/07 07:26:59;;;;;;;0.80;0.50;;;4.20;99.90;;;4.27;100.00;99345.94;6156531;23;20231;-65
2024/02/07 07:29:30;;;;;;;0.80;0.73;;;4.20;99.90;;;4.25;100.00;99348.03;6127040;23;20157;-66
2024/02/07 07:32:00;;;;;;;2.95;0.95;;;4.20;99.90;;;4.29;100.00;99349.28;6126648;23;20164;-66
2024/02/07 07:34:32;;;;;;;0.90;0.60;;;4.30;99.90;;;4.24;100.00;99344.50;6127301;23;20176;-66
2024/02/07 07:37:02;;;;;;;2.42;1.38;;;4.20;99.90;;;4.25;100.00;99353.38;6127939;23;20184;-66
2024/02/07 07:39:31;;;;;;;2.55;0.88;;;4.30;99.90;;;4.31;100.00;99360.59;6126730;23;20191;-65
2024/02/07 07:42:00;;;;;;;0.80;0.50;;;4.30;99.90;;;4.32;100.00;99373.78;6127900;23;20172;-66
2024/02/07 07:44:28;;;;;;;4.55;0.88;;;4.30;99.90;;;4.46;100.00;99372.00;6127035;23;20255;-67
2024/02/07 07:46:57;;;;;;;0.80;0.50;;;4.40;99.90;;;4.35;100.00;99372.59;6128049;23;20167;-66
2024/02/07 07:49:26;;;;;;;1.00;0.77;;;4.30;99.90;;;4.41;100.00;99370.94;6128573;23;20239;-66
2024/02/07 07:51:55;;;;;;;1.45;0.77;;;4.40;99.90;;;4.41;100.00;99369.09;6129438;23;20522;-65
2024/02/07 07:54:25;;;;;;;0.80;0.40;;;4.40;99.90;;;4.44;100.00;99376.75;6129879;23;20169;-67
2024/02/07 07:56:54;;;;;;;1.65;0.70;;;4.40;99.90;;;4.43;100.00;99382.28;6128925;23;20157;-66
2024/02/07 07:59:23;;;;;;;0.80;0.50;;;4.40;99.90;;;4.46;100.00;99377.34;6128758;23;20232;-65
2024/02/07 08:01:58;;;;;;;1.30;0.60;;;4.40;99.90;;;4.52;100.00;99383.75;6127157;23;20193;-66
2024/02/07 08:04:28;;;;;;;0.90;0.80;;;4.50;99.90;;;4.52;100.00;99381.09;6129233;23;20686;-64
2024/02/07 08:06:57;;;;;;;0.95;0.85;;;4.50;99.90;;;4.61;100.00;99383.38;6130913;23;20161;-66
2024/02/07 08:09:27;;;;;;;0.80;0.50;;;4.60;99.90;;;4.62;100.00;99392.25;6129647;23;20194;-66
2024/02/07 08:11:55;;;;;;;0.80;0.50;;;4.60;99.90;;;4.61;100.00;99386.06;6130355;23;20541;-65
2024/02/07 08:14:24;;;;;;;14.27;1.48;;;4.60;99.90;;;4.61;100.00;99396.78;6130439;23;20174;-64
2024/02/07 08:16:53;;;;;;;1.25;1.15;;;4.60;99.90;;;4.63;100.00;99405.47;6129460;23;20216;-66
2024/02/07 08:19:21;;;;;;;1.48;1.27;;;4.60;99.90;;;4.71;100.00;99399.91;6129381;23;20196;-65
2024/02/07 08:21:50;;;;;;;1.15;1.05;;;4.70;99.90;;;4.73;100.00;99395.19;6130143;23;20200;-66
2024/02/07 08:24:19;;;;;;;10.27;1.83;;;4.70;99.90;;;4.74;100.00;99412.91;6131442;23;20681;-64
2024/02/07 08:26:49;;;;;;;0.95;0.65;;;4.70;99.90;;;4.67;100.00;99401.34;6128081;23;20169;-66
2024/02/07 08:29:18;;;;;;;0.80;0.50;;;4.70;99.90;;;4.75;100.00;99398.47;6129588;23;20340;-66
2024/02/07 08:31:46;;;;;;;1.38;0.80;;;4.70;99.90;;;4.83;100.00;99405.53;6128877;23;20166;-65
2024/02/07 08:34:16;;;;;;;0.80;0.50;;;4.80;99.90;;;4.77;100.00;99412.53;6126868;23;20555;-63
2024/02/07 08:36:46;;;;;;;1.02;0.93;;;4.80;1.00;;;4.84;100.00;99411.72;6126403;23;20252;-65
2024/02/07 08:42:06;;;;;;;0.80;0.50;;;4.80;49.20;;;4.92;100.00;99412.38;6187455;23;20228;-64
2024/02/07 08:44:38;;;;;;;1.23;0.80;;;4.80;1.00;;;4.92;100.00;99408.84;6187227;23;20164;-65
2024/02/07 08:47:07;;;;;;;0.90;0.73;;;4.80;1.00;;;5.04;100.00;99412.59;6187821;23;20478;-67
2024/02/07 08:49:35;;;;;;;0.90;0.60;;;4.90;1.00;;;5.00;100.00;99420.22;6187187;23;20480;-62
2024/02/07 08:52:04;;;;;;;0.80;0.50;;;5.00;1.00;;;5.04;100.00;99424.13;6186803;23;20237;-64
2024/02/07 08:54:34;;;;;;;1.05;0.88;;;5.00;99.90;;;5.02;100.00;99422.69;6187523;23;20244;-63
2024/02/07 08:57:03;;;;;;;0.80;0.50;;;5.00;5.10;;;5.01;100.00;99429.09;6185321;23;20191;-66
2024/02/07 08:59:33;;;;;;;2.35;0.80;;;5.00;99.90;;;4.97;100.00;99430.53;6184954;23;20165;-64
2024/02/07 09:02:02;;;;;;;1.65;1.35;;;5.00;99.90;;;5.00;100.00;99433.63;6185074;23;20212;-62
2024/02/07 09:04:32;;;;;;;0.80;0.50;;;5.00;99.90;;;5.08;100.00;99429.94;6185107;23;20602;-63
2024/02/07 09:07:00;;;;;;;0.90;0.80;;;5.00;99.90;;;5.28;100.00;99430.78;6184640;23;20170;-62
2024/02/07 09:09:29;;;;;;;0.80;0.50;;;5.10;99.90;;;5.37;100.00;99440.31;6184200;23;20251;-62
2024/02/07 09:11:58;;;;;;;0.98;0.60;;;5.30;53.20;;;5.37;100.00;99443.00;6186369;23;20166;-64
2024/02/07 09:14:26;;;;;;;2.28;0.80;;;5.30;99.90;;;5.51;100.00;99442.00;6188481;23;20170;-65
2024/02/07 09:16:56;;;;;;;4.53;1.70;;;5.40;99.90;;;5.56;100.00;99439.53;6185581;23;20170;-65
2024/02/07 09:19:26;;;;;;;1.55;1.20;;;5.50;1.00;;;5.39;100.00;99453.50;6185506;23;20224;-63
2024/02/07 09:21:55;;;;;;;1.80;1.15;;;5.40;99.90;;;5.43;100.00;99452.91;6185675;23;20181;-64
2024/02/07 09:24:51;;;;;;;1.48;0.52;;;5.40;1.00;;;5.66;100.00;99450.66;6184961;23;20235;-67
2024/02/07 09:27:19;;;;;;;5.68;0.90;;;5.50;1.00;;;5.79;100.00;99449.84;6185054;23;20565;-65
2024/02/07 09:29:48;;;;;;;2.42;2.13;;;5.60;1.00;;;5.64;100.00;99457.28;6185434;23;20163;-65
2024/02/07 09:32:27;;;;;;;0.80;0.40;;;5.60;99.90;;;5.52;100.00;99465.09;6185114;23;20156;-63
2024/02/07 09:34:56;;;;;;;0.90;0.50;;;5.50;76.20;;;5.33;100.00;99449.78;6185038;23;20162;-63
2024/02/07 09:37:25;;;;;;;15.50;0.88;;;5.40;1.00;;;5.47;100.00;99462.19;6186671;23;20531;-65
2024/02/07 09:39:54;;;;;;;0.80;0.50;;;5.40;1.00;;;5.56;100.00;99474.41;6186536;23;20640;-65
2024/02/07 09:42:24;;;;;;;0.90;0.70;;;5.50;1.00;;;5.58;100.00;99477.69;6186405;23;20182;-64
2024/02/07 09:44:56;;;;;;;0.80;0.40;;;5.50;1.00;;;5.45;100.00;99477.69;6187171;23;20165;-64
2024/02/07 09:47:37;;;;;;;1.73;0.68;;;5.50;1.00;;;5.48;100.00;99485.31;6186486;23;20231;-65
2024/02/07 09:50:11;;;;;;;1.08;0.88;;;5.50;99.90;;;5.60;100.00;99499.81;6186315;23;20602;-64
2024/02/07 09:52:42;;;;;;;1.08;0.98;;;5.50;1.00;;;5.57;100.00;99500.19;6186192;23;20228;-64
2024/02/07 09:55:11;;;;;;;0.80;0.50;;;5.50;99.90;;;5.65;100.00;99496.50;6186253;23;20168;-63
2024/02/07 09:57:42;;;;;;;0.90;0.60;;;5.60;99.90;;;5.47;100.00;99496.28;6186396;23;20584;-65
2024/02/07 10:00:12;;;;;;;1.70;0.60;;;5.40;99.90;;;5.52;100.00;99502.66;6189931;23;20161;-66
2024/02/07 10:02:51;;;;;;;0.80;0.50;;;5.50;99.90;;;5.35;97.37;99508.59;6188394;23;20180;-65
2024/02/07 10:05:24;;;;;;;2.10;0.93;;;5.40;99.90;;;5.38;96.85;99509.03;6186544;23;20615;-62
2024/02/07 10:07:54;;;;;;;2.63;1.17;;;5.40;99.90;;;5.25;93.29;99511.66;6185911;23;20184;-65
2024/02/07 10:10:23;;;;;;;0.80;0.50;;;5.30;99.90;;;5.26;92.20;99521.38;6185536;23;20645;-64
2024/02/07 10:12:56;;;;;;;1.02;0.93;;;5.30;99.90;;;5.27;92.55;99517.66;6185881;23;20210;-64
2024/02/07 10:15:27;;;;;;;1.65;1.02;;;5.20;99.90;;;5.29;89.53;99539.75;6185939;23;20157;-63
2024/02/07 10:17:57;;;;;;;0.90;0.60;;;5.30;99.90;;;5.33;88.89;99518.69;6186755;23;20209;-63
2024/02/07 10:20:26;;;;;;;4.13;0.77;;;5.30;99.90;;;5.40;87.67;99522.25;6185888;23;20157;-64
2024/02/07 10:22:55;;;;;;;4.05;0.63;;;5.40;99.90;;;5.50;88.79;99536.94;6186106;23;20633;-65
2024/02/07 10:25:23;;;;;;;0.80;0.50;;;5.40;99.90;;;5.76;89.02;99536.13;6185605;23;20244;-65
2024/02/07 10:28:02;;;;;;;0.80;0.50;;;5.60;99.90;;;5.68;84.81;99560.50;6185391;23;20269;-63
2024/02/07 10:30:31;;;;;;;1.75;1.10;;;5.60;99.90;;;5.49;81.60;99551.38;6186019;23;20495;-64
2024/02/07 10:33:01;;;;;;;1.10;0.60;;;5.50;99.90;;;5.74;85.22;99553.50;6185756;23;20165;-65
2024/02/07 10:35:30;;;;;;;2.30;0.93;;;5.60;99.90;;;5.80;84.64;99558.06;6163820;23;20598;-66
2024/02/07 10:37:59;;;;;;;0.95;0.80;;;5.70;99.90;;;5.82;82.83;99561.34;6190026;23;20197;-66
2024/02/07 10:40:30;;;;;;;0.80;0.68;;;5.80;99.90;;;5.76;82.88;99562.19;6189868;23;20170;-65
2024/02/07 10:43:00;;;;;;;2.35;2.15;;;5.80;99.90;;;5.82;85.14;99558.66;6191318;23;20197;-66
2024/02/07 10:45:29;;;;;;;1.38;0.70;;;5.80;99.90;;;5.74;84.48;99570.44;6190795;23;20177;-66
2024/02/07 10:47:58;;;;;;;0.90;0.70;;;5.70;99.90;;;5.64;79.78;99569.97;6190010;23;20192;-65
2024/02/07 10:50:28;;;;;;;2.60;1.20;;;5.60;99.90;;;5.62;79.61;99559.44;6193025;23;20193;-66
2024/02/07 10:52:57;;;;;;;1.60;0.90;;;5.60;99.90;;;5.70;76.91;99582.59;6167318;23;20157;-68
2024/02/07 10:55:26;;;;;;;1.35;0.50;;;5.60;99.90;;;5.51;73.79;99581.53;6193072;23;20150;-66
2024/02/07 10:58:01;;;;;;;0.80;0.40;;;5.60;99.90;;;5.47;73.54;99585.59;6193562;23;20185;-66
2024/02/07 11:00:30;;;;;;;2.72;1.17;;;5.50;99.90;;;5.50;72.88;99595.97;6192330;23;20153;-67
2024/02/07 11:03:00;;;;;;;1.20;0.80;;;5.50;99.90;;;5.37;70.19;99595.91;6191789;23;20170;-66
2024/02/07 11:05:30;;;;;;;0.90;0.50;;;5.40;99.90;;;5.30;69.26;99594.22;6191959;23;20176;-67
2024/02/07 11:08:00;;;;;;;0.80;0.60;;;5.30;99.90;;;5.40;71.60;99584.78;6190360;23;20722;-64
2024/02/07 11:10:31;;;;;;;0.80;0.70;;;5.40;99.90;;;5.51;70.04;99594.94;6189428;23;20343;-66
2024/02/07 11:13:00;;;;;;;0.80;0.47;;;5.50;99.90;;;5.55;68.58;99582.75;6188465;23;20153;-65
2024/02/07 11:15:29;;;;;;;0.80;0.60;;;5.50;99.90;;;5.80;70.07;99579.53;6187540;23;20158;-64
2024/02/07 11:17:58;;;;;;;2.40;1.92;;;5.70;99.90;;;5.72;67.81;99585.06;6186117;23;20240;-65
2024/02/07 11:20:28;;;;;;;0.90;0.50;;;5.70;99.90;;;5.67;65.83;99581.13;6185980;23;20167;-65
2024/02/07 11:23:04;;;;;;;0.80;0.40;;;5.70;99.90;;;5.86;66.87;99590.25;6185948;23;20181;-65
2024/02/07 11:25:36;;;;;;;3.95;0.80;;;5.70;99.90;;;5.88;66.18;99582.03;6186151;23;20225;-64
2024/02/07 11:28:06;;;;;;;3.42;1.48;;;5.80;99.90;;;5.97;65.90;99608.50;6184378;23;20276;-65
2024/02/07 11:30:38;;;;;;;3.00;0.70;;;5.90;99.90;;;6.09;65.68;99598.00;6185154;23;20150;-64
2024/02/07 11:33:09;;;;;;;0.90;0.70;;;6.00;99.90;;;6.31;66.21;99588.72;6158781;23;20149;-63
2024/02/07 11:35:39;;;;;;;0.80;0.50;;;6.10;99.90;;;6.55;65.36;99589.94;6185443;23;20154;-64
2024/02/07 11:38:13;;;;;;;1.15;0.52;;;6.40;99.90;;;6.82;62.96;99598.81;6185989;23;20573;-64
2024/02/07 11:40:43;;;;;;;5.75;0.95;;;6.60;99.90;;;6.91;63.89;99590.31;6186559;23;20558;-64
2024/02/07 11:43:19;;;;;;;3.67;1.00;;;6.70;99.90;;;6.64;62.09;99585.16;6186117;23;20173;-65
2024/02/07 11:45:50;;;;;;;0.90;0.70;;;6.70;99.90;;;6.34;64.17;99582.91;6186917;23;20154;-64
2024/02/07 11:48:24;;;;;;;0.80;0.40;;;6.40;99.90;;;6.41;63.90;99582.91;6187680;23;20185;-66
2024/02/07 11:50:55;;;;;;;5.75;1.13;;;6.40;99.90;;;6.66;63.57;99591.19;6188188;23;20156;-65
2024/02/07 11:53:28;;;;;;;1.52;0.70;;;6.50;99.90;;;6.64;64.39;99594.06;6187663;23;20531;-66
2024/02/07 11:55:56;;;;;;;3.83;1.70;;;6.60;99.90;;;6.91;62.80;99594.88;6187301;23;20153;-66
2024/02/07 11:58:26;;;;;;;4.10;0.80;;;6.80;99.90;;;6.48;60.23;99587.28;6186306;23;20193;-64
2024/02/07 12:00:56;;;;;;;0.80;0.68;;;6.60;95.70;;;6.66;61.70;99594.69;6184250;23;20165;-65
2024/02/07 12:03:25;;;;;;;1.20;0.60;;;6.60;95.40;;;6.58;62.14;99597.59;6183144;23;20264;-65
2024/02/07 12:05:54;;;;;;;1.13;0.75;;;6.60;93.80;;;6.61;61.58;99605.25;6185134;23;20205;-67
2024/02/07 12:08:25;;;;;;;1.23;0.52;;;6.60;92.70;;;6.88;62.20;99616.78;6185136;23;20185;-64
2024/02/07 12:10:54;;;;;;;4.13;1.90;;;6.70;93.20;;;6.69;60.33;99606.88;6185421;23;20594;-65
2024/02/07 12:13:22;;;;;;;0.80;0.50;;;6.70;91.00;;;6.73;61.20;99608.16;6184995;23;20150;-63
2024/02/07 12:15:52;;;;;;;0.80;0.50;;;6.70;90.20;;;6.66;61.90;99610.00;6184676;23;20244;-65
2024/02/07 12:18:20;;;;;;;1.33;1.15;;;6.60;88.70;;;6.67;61.36;99614.34;6184847;23;20656;-65
2024/02/07 12:20:49;;;;;;;1.05;0.52;;;6.60;86.90;;;6.90;61.61;99620.09;6158435;23;20203;-66
2024/02/07 12:23:19;;;;;;;2.15;1.23;;;6.80;88.20;;;6.67;62.55;99630.47;6185217;23;20599;-64
2024/02/07 12:25:58;;;;;;;0.85;0.50;;;6.70;86.20;;;6.54;62.16;99629.44;6185032;23;20216;-65
2024/02/07 12:28:27;;;;;;;1.80;1.15;;;6.60;84.60;;;6.50;62.93;99636.25;6184906;23;20185;-65
2024/02/07 12:30:56;;;;;;;1.35;1.23;;;6.50;81.80;;;6.67;63.47;99630.47;6184871;23;20610;-65
2024/02/07 12:33:25;;;;;;;0.90;0.60;;;6.60;83.60;;;6.53;62.61;99657.31;6184895;23;20530;-65